Latest Coastal Weather Observations for St Lawrence

IDQ60701

Issued at 6:01 pm EST Tuesday 24 May 2016 (issued every 10 minutes, with the page automatically refreshed every 10 minutes)

About coastal observations | Map of coastal stations | Coastal observations for QLD | Marine services | Other Formats
Station Details ID: 033210 Name: ST LAWRENCE Lat: -22.35 Lon: 149.52 Height: 9.19 m
Data from the previous 72 hours. | See also: Recent months at St Lawrence
Date/Time
EST
Temp

°C
Wind Pressure Rain
since 9am
mm
Weather Cloud Vis
km
Sea
Height
m
Swell
Dir
 
Speed
knots
Gust
knots
hPa Trend Height
m
Period
s
Dir
24/06:00pm 25.3 NNE 5 7 1016.3 - 0.0 - - - - - - -
24/05:30pm 25.6 NNE 5 6 1015.8 - 0.0 - - - - - - -
24/05:00pm 26.7 NE 6 8 1015.5 - 0.0 - - - - - - -
24/04:30pm 27.5 NE 6 8 1015.1 - 0.0 - - - - - - -
24/04:00pm 28.1 NNE 8 10 1014.9 - 0.0 - - - - - - -
24/03:30pm 28.3 NE 8 12 1014.7 - 0.0 - - - - - - -
24/03:00pm 28.8 NNE 9 11 1014.6 - 0.0 - - - - - - -
24/02:30pm 28.9 NNE 7 9 1014.4 - 0.0 - - - - - - -
24/02:00pm 28.9 NNE 7 9 1014.6 - 0.0 - - - - - - -
24/01:30pm 30.1 E 5 9 1015.0 - 0.0 - - - - - - -
24/01:00pm 28.8 SSE 4 7 1015.3 - 0.0 - - - - - - -
24/12:30pm 29.3 SSE 4 8 1015.9 - 0.0 - - - - - - -
24/12:00pm 28.1 S 3 8 1016.4 - 0.0 - - - - - - -
24/11:30am 27.5 SSE 3 7 1016.8 - 0.0 - - - - - - -
24/11:00am 26.7 NNW 2 5 1017.2 - 0.0 - - - - - - -
24/10:30am 25.6 N 2 5 1017.4 - 0.0 - - - - - - -
24/10:00am 24.7 NW 2 4 1017.9 - 0.0 - - - - - - -
24/09:30am 24.4 CALM 0 0 1018.1 - 0.0 - - - - - - -
24/09:00am 23.6 CALM 0 3 1018.3 - 1.6 - - - - - - -
24/08:30am 21.7 CALM 0 0 1018.2 - 1.6 - - - - - - -
24/08:00am 20.3 S 3 5 1018.1 - 1.6 - - - - - - -
24/07:30am 19.8 SSW 3 4 1017.9 - 1.6 - - - - - - -
24/07:00am 19.7 CALM 0 0 1017.6 - 1.6 - - - - - - -
24/06:30am 19.7 CALM 0 3 1017.6 - 1.6 - - - - - - -
24/06:00am 19.8 CALM 0 0 1017.4 - 1.6 - - - - - - -
24/05:30am 19.7 W 1 3 1017.3 - 1.6 - - - - - - -
24/05:00am 19.8 NNW 5 6 1017.1 - 1.6 - - - - - - -
24/04:30am 20.0 S 1 4 1017.1 - 1.4 - - - - - - -
24/04:00am 20.0 CALM 0 0 1016.8 - 1.4 - - - - - - -
24/03:30am 19.9 SW 3 4 1017.2 - 1.4 - - - - - - -
24/03:00am 20.0 SW 2 3 1017.4 - 1.4 Recent precip. - - - - - -
24/02:30am 20.3 CALM 0 0 1017.6 - 1.4 - - - - - - -
24/02:00am 20.3 CALM 0 0 1017.8 - 1.2 - - - - - - -
24/01:30am 20.3 CALM 0 0 1018.0 - 1.2 - - - - - - -
24/01:00am 20.5 CALM 0 0 1018.0 - 1.0 - - - - - - -
24/12:30am 20.4 CALM 0 0 1018.1 - 1.0 - - - - - - -
24/12:00am 20.6 CALM 0 0 1018.3 - 0.8 - - - - - - -
 
Date/Time
EST
Temp

°C
Wind Pressure Rain
since 9am
mm
Weather Cloud Vis
km
Sea
Height
m
Swell
Dir
 
Speed
knots
Gust
knots
hPa Trend Height
m
Period
s
Dir
23/11:30pm 20.6 CALM 0 0 1018.3 - 0.8 - - - - - - -
23/11:00pm 20.7 CALM 0 0 1018.3 - 0.8 - - - - - - -
23/10:30pm 20.6 CALM 0 3 1018.5 - 0.8 - - - - - - -
23/10:00pm 20.8 NNW 2 4 1018.5 - 0.8 - - - - - - -
23/09:30pm 21.1 CALM 0 0 1018.4 - 0.6 - - - - - - -
23/09:00pm 21.5 CALM 0 0 1018.5 - 0.6 Rain - - - - - -
23/08:30pm 21.5 CALM 0 0 1018.5 - 0.4 - - - - - - -
23/08:00pm 21.9 CALM 0 0 1018.4 - 0.0 - - - - - - -
23/07:30pm 22.5 CALM 0 0 1018.3 - 0.0 - - - - - - -
23/07:00pm 22.7 NNE 3 4 1018.4 - 0.0 - - - - - - -
23/06:30pm 22.8 NE 4 5 1017.9 - 0.0 - - - - - - -
23/06:00pm 23.0 NNE 4 6 1017.7 - 0.0 - - - - - - -
23/05:30pm 23.5 NNE 5 7 1017.6 - 0.0 - - - - - - -
23/05:00pm 23.9 NNE 6 8 1017.3 - 0.0 - - - - - - -
23/04:30pm 24.2 NNE 7 10 1017.1 - 0.0 - - - - - - -
23/04:00pm 24.8 NNE 8 11 1016.7 - 0.0 - - - - - - -
23/03:30pm 25.6 NE 6 8 1016.4 - 0.0 - - - - - - -
23/03:00pm 26.1 NNE 6 8 1016.4 - 0.0 - - - - - - -
23/02:30pm 26.3 NNE 7 9 1016.6 - 0.0 - - - - - - -
23/02:00pm 26.8 NNE 7 10 1016.5 - 0.0 - - - - - - -
23/01:30pm 26.6 NNE 7 10 1016.7 - 0.0 - - - - - - -
23/01:00pm 26.9 NNE 6 10 1017.3 - 0.0 - - - - - - -
23/12:30pm 27.6 NNE 5 10 1017.9 - 0.0 - - - - - - -
23/12:00pm 26.5 ENE 5 8 1018.4 - 0.0 - - - - - - -
23/11:30am 26.8 ESE 5 8 1018.8 - 0.0 - - - - - - -
23/11:00am 25.8 ESE 6 10 1019.3 - 0.0 - - - - - - -
23/10:30am 25.4 SE 6 11 1019.6 - 0.0 - - - - - - -
23/10:00am 24.7 SSE 5 8 1019.6 - 0.0 - - - - - - -
23/09:30am 23.4 S 6 8 1019.7 - 0.0 - - - - - - -
23/09:00am 22.4 S 5 7 1019.9 - 0.0 - - - - - - -
23/08:30am 22.1 S 6 8 1019.7 - 0.0 - - - - - - -
23/08:00am 21.9 S 6 9 1019.4 - 0.0 - - - - - - -
23/07:30am 21.0 S 5 7 1019.1 - 0.0 - - - - - - -
23/07:00am 20.5 S 4 6 1018.8 - 0.0 - - - - - - -
23/06:30am 20.4 S 5 6 1018.8 - 0.0 - - - - - - -
23/06:00am 20.4 S 5 7 1018.7 - 0.0 - - - - - - -
23/05:30am 20.8 S 6 7 1018.4 - 0.0 - - - - - - -
23/05:00am 21.0 S 5 7 1018.4 - 0.0 - - - - - - -
23/04:30am 21.0 S 5 7 1018.3 - 0.0 - - - - - - -
23/04:00am 21.1 SSE 7 9 1018.2 - 0.0 - - - - - - -
23/03:30am 21.0 SSE 5 7 1018.4 - 0.0 - - - - - - -
23/03:00am 20.9 S 4 6 1018.8 - 0.0 - - - - - - -
23/02:30am 21.1 SSE 5 7 1018.5 - 0.0 - - - - - - -
23/02:00am 21.1 SW 3 4 1019.4 - 0.0 - - - - - - -
23/01:30am 21.0 SSW 3 4 1019.2 - 0.0 - - - - - - -
23/01:00am 20.8 SSW 2 4 1019.2 - 0.0 - - - - - - -
23/12:30am 20.5 SSW 1 3 1019.4 - 0.0 - - - - - - -
23/12:00am 19.9 CALM 0 0 1019.5 - 0.0 - - - - - - -
 
Date/Time
EST
Temp

°C
Wind Pressure Rain
since 9am
mm
Weather Cloud Vis
km
Sea
Height
m
Swell
Dir
 
Speed
knots
Gust
knots
hPa Trend Height
m
Period
s
Dir
22/11:30pm 20.0 SW 3 4 1019.3 - 0.0 - - - - - - -
22/11:00pm 20.8 S 3 4 1019.4 - 0.0 - - - - - - -
22/10:30pm 21.6 SE 3 5 1019.8 - 0.0 - - - - - - -
22/10:00pm 21.9 SE 4 5 1020.1 - 0.0 - - - - - - -
22/09:30pm 22.1 SE 3 5 1020.2 - 0.0 - - - - - - -
22/09:00pm 22.5 SE 4 6 1020.4 - 0.0 - - - - - - -
22/08:30pm 22.8 ESE 2 4 1020.4 - 0.0 - - - - - - -
22/08:00pm 23.1 E 4 6 1020.1 - 0.0 - - - - - - -
22/07:30pm 23.4 E 5 8 1019.8 - 0.0 - - - - - - -
22/07:00pm 23.6 ENE 6 9 1019.4 - 0.0 - - - - - - -
22/06:30pm 23.9 ENE 6 10 1019.2 - 0.0 - - - - - - -
22/06:00pm 24.3 ENE 6 9 1018.9 - 0.0 - - - - - - -
22/05:30pm 24.8 NE 7 11 1018.7 - 0.0 - - - - - - -
22/05:00pm 25.1 NNE 7 10 1018.4 - 0.0 - - - - - - -
22/04:30pm 25.6 NNE 8 11 1018.3 - 0.0 - - - - - - -
22/04:00pm 26.1 NNE 9 12 1018.2 - 0.0 - - - - - - -
22/03:30pm 27.0 NNE 10 12 1018.0 - 0.0 - - - - - - -
22/03:00pm 27.4 NNE 9 12 1017.9 - 0.0 - - - - - - -
22/02:30pm 27.5 NNE 9 12 1018.2 - 0.0 - - - - - - -
22/02:00pm 27.0 NNE 8 11 1018.4 - 0.0 - - - - - - -
22/01:30pm 27.0 NNE 10 14 1018.4 - 0.0 - - - - - - -
22/01:00pm 28.4 NE 8 11 1018.9 - 0.0 - - - - - - -
22/12:30pm 26.7 ENE 9 13 1019.6 - 0.0 - - - - - - -
22/12:00pm 27.7 ENE 9 15 1019.9 - 0.0 - - - - - - -
22/11:30am 26.9 ENE 8 13 1020.6 - 0.0 - - - - - - -
22/11:00am 26.9 E 6 11 1021.2 - 0.0 - - - - - - -
22/10:30am 26.0 ENE 6 9 1021.8 - 0.0 - - - - - - -
22/10:00am 25.2 SE 4 6 1022.1 - 0.0 - - - - - - -
22/09:30am 23.7 S 5 7 1022.1 - 0.0 - - - - - - -
22/09:00am 23.2 S 6 9 1022.1 - 0.0 - - - - - - -
22/08:30am 22.5 S 7 10 1021.8 - 0.0 - - - - - - -
22/08:00am 20.6 S 7 10 1021.7 - 0.0 - - - - - - -
22/07:30am 20.0 S 6 9 1021.0 - 0.0 - - - - - - -
22/07:00am 19.6 SSE 6 9 1020.7 - 0.0 - - - - - - -
22/06:30am 19.4 SSE 6 9 1021.1 - 0.0 - - - - - - -
22/06:00am 19.3 S 6 8 1020.9 - 0.0 - - - - - - -
22/05:30am 19.1 S 6 9 1020.7 - 0.0 - - - - - - -
22/05:00am 19.1 S 6 7 1020.2 - 0.0 - - - - - - -
22/04:30am 19.2 S 6 8 1020.0 - 0.0 - - - - - - -
22/04:00am 19.3 S 6 7 1019.5 - 0.0 - - - - - - -
22/03:30am 19.2 S 5 7 1019.7 - 0.0 - - - - - - -
22/03:00am 19.4 SSE 5 7 1019.5 - 0.0 - - - - - - -
22/02:30am 19.9 SSE 6 8 1019.5 - 0.0 - - - - - - -
22/02:00am 19.8 S 5 7 1019.9 - 0.0 - - - - - - -
22/01:30am 19.5 SSE 5 7 1019.8 - 0.0 - - - - - - -
22/01:00am 18.7 S 3 5 1020.1 - 0.0 - - - - - - -
22/12:30am 19.6 S 4 5 1020.6 - 0.0 - - - - - - -
22/12:00am 18.4 S 3 4 1020.5 - 0.0 - - - - - - -
 
Date/Time
EST
Temp

°C
Wind Pressure Rain
since 9am
mm
Weather Cloud Vis
km
Sea
Height
m
Swell
Dir
 
Speed
knots
Gust
knots
hPa Trend Height
m
Period
s
Dir
21/11:30pm 18.2 CALM 0 0 1021.0 - 0.0 - - - - - - -
21/11:00pm 18.6 CALM 0 0 1021.1 - 0.0 - - - - - - -
21/10:30pm 19.0 CALM 0 0 1021.5 - 0.0 - - - - - - -
21/10:00pm 20.3 SSE 3 4 1021.5 - 0.0 - - - - - - -
21/09:30pm 20.9 S 3 4 1021.3 - 0.0 - - - - - - -
21/09:00pm 21.9 SE 4 6 1020.9 - 0.0 - - - - - - -
21/08:30pm 22.3 ESE 4 5 1020.9 - 0.0 - - - - - - -
21/08:00pm 22.7 E 4 6 1020.7 - 0.0 - - - - - - -
21/07:30pm 22.9 E 4 7 1020.3 - 0.0 - - - - - - -
21/07:00pm 23.5 E 5 10 1020.1 - 0.0 - - - - - - -
21/06:30pm 23.8 E 5 9 1019.7 - 0.0 - - - - - - -

Other Formats:

Comma delimited format used in spreadsheet applications
http://www.bom.gov.au/fwo/IDQ60701/IDQ60701.95369.axf

JavaScript Object Notation format (JSON) in row-major order
http://www.bom.gov.au/fwo/IDQ60701/IDQ60701.95369.json